Terminal Aerodrome Forecast
Issued by NWS

Home | Current Version | Previous Version | Text Only | Print | Product List | Glossary On
Versions: 1 2 3 4 5 6 7 8 9 10 11 12 13
000
FTUS45 KREV 240526
TAFTVL
TAF
KTVL 240526Z 2406/2506 19008KT P6SM SCT080 OVC150
     FM241400 19016G25KT P6SM VCSH BKN050 OVC080
     FM242300 20013G24KT P6SM SCT050 BKN080=

USA.gov is the U.S. government's official web portal to all federal, state and local government web resources and services.